Tiempo atmosférico en la estación meteorológica de Alcañices, Zamora (840 m.)



Fecha
DESCASC
Temp. máxima en grados centígrados (hora)
DESCASC
Temp. mínima en grados centígrados (hora)
DESCASC
Temp. media en grados centígrados
DESCASC
Racha de viento máxima en m/sg (hora)
DESCASC
Velocidad máxima media en intervalos de 10 minutos(hora)
DESCASC
Precipitaciones diarias en mm
DESCASC
Precipitaciones de 00:00 a 06:00 en mm
DESCASC
Precipitaciones de 06:00 a 12:00 en mm
DESCASC
Precipitaciones de 12:00 a 18:00 en mm
DESCASC
Precipitaciones de 18:00 a 24:00 en mm
DESCASC
17-08-2018 27.7 (17:30) 13 (07:30) 20.4 13.06 (23:59) 8.06 (21:40) 0 0 0 0 0
16-08-2018 31.6 (17:40) 14.8 (07:50) 23.2 11.39 (23:40) 7.5 (23:50) 0 0 0 0 0
15-08-2018 33 (19:00) 12.2 (07:40) 22.6 11.94 (09:40) 8.61 (09:40) 0 0 0 0 0
14-08-2018 29.2 (17:20) 13.3 (06:40) 21.3 10.83 (09:20) 8.33 (09:20) 0 0 0 0 0
13-08-2018 29.4 (18:30) 11.5 (06:10) 20.4 8.89 (00:10) 5.56 (00:10) 0 0 0 0 0
12-08-2018 29 (14:20) 14.5 (00:00) 21.8 10.83 (15:10) 6.94 (14:10) 0 0 0 0 0
11-08-2018 32.2 (18:00) 12.6 (00:00) 22.4 8.61 (18:10) 5.28 (09:30) 0 0 0 0 0
10-08-2018 29 (18:10) 10 (07:20) 19.5 10.28 (01:30) 7.78 (09:30) 0 0 0 0 0
09-08-2018 26.6 (16:50) 8.3 (00:00) 17.5 7.78 (16:50) 5 (23:40) 0 0 0 0 0
08-08-2018 27.9 (17:00) 11.9 (00:00) 19.9 11.67 (22:10) 6.67 (22:20) 0 0 0 0 0
07-08-2018 28.4 (16:40) 11 (00:00) 19.7 8.61 (20:00) 5.56 (20:00) 0 0 0 0 0
06-08-2018 36.3 (16:40) 18.9 (00:00) 27.6 10.83 (15:40) 6.67 (17:40) 0 0 0 0 0
05-08-2018 37.3 (19:00) 17.1 (00:00) 27.2 7.22 (10:40) 5.83 (10:40) 0 0 0 0 0
04-08-2018 38.3 (17:20) 18.4 (06:50) 28.3 8.61 (18:20) 5.83 (18:30) 0 0 0 0 0
03-08-2018 39 (16:10) 21 (00:00) 30 10.56 (16:40) 6.39 (17:30) 0 0 0 0 0
02-08-2018 37.9 (19:00) 17 (00:00) 27.5 8.89 (16:30) 6.11 (05:20) 0 0 0 0 0
01-08-2018 33.8 (18:50) 14 (06:00) 23.9 7.22 (12:40) 5.56 (06:50) 0 0 0 0 0
31-07-2018 29.2 (17:20) 12.3 (00:00) 20.8 8.06 (00:20) 5 (00:20) 0 0 0 0 0
30-07-2018 26.7 (17:20) 10.8 (00:00) 18.8 11.11 (15:00) 6.67 (17:40) 0 0 0 0 0
29-07-2018 25.5 (18:00) 10.5 (00:00) 18 10.83 (17:50) 6.67 (17:40) 0 0 0 0 0
28-07-2018 28.2 (17:50) 10.5 (00:00) 19.4 9.72 (19:10) 5.56 (18:40) 0 0 0 0 0
27-07-2018 -- (--) -- (--) -- -- (--) -- (--) -- 0 0 -- 0
26-07-2018 28.2 (17:50) 15.1 (00:00) 21.7 10 (18:40) 6.11 (19:30) 0 0 0 0 0
25-07-2018 31.3 (18:00) 14.6 (00:00) 22.9 8.89 (09:20) 6.39 (09:20) 0 0 0 0 0
24-07-2018 28.7 (17:00) 13.5 (00:00) 21.1 6.94 (15:00) 4.72 (20:00) 0 0 0 0 0
23-07-2018 31 (17:10) 13.9 (00:00) 22.4 9.72 (14:30) 6.67 (09:40) 0 0 0 0 0
22-07-2018 30 (20:20) 11.3 (00:00) 20.7 10 (09:30) 6.67 (09:40) 0 0 0 0 0
21-07-2018 24.3 (17:20) 11.1 (07:10) 17.7 7.22 (03:00) 5.28 (03:00) 0 0 0 0 0
20-07-2018 25.2 (19:00) 12.4 (00:00) 18.8 14.72 (15:00) 9.72 (15:00) 10 0 0 10 0

Gráficas

Temp. máximas Temp. mínimas Temp. medias Precipitaciones Rachas de viento máximas Velocidades máximas media en intervalos de 10 minutos

Datos horarios

Fecha y hora oficial Temperatura (ºC) Velocidad del viento (km/h) Dirección del viento Racha (km/h) Dirección de racha Precipitación (mm) Presión (hPa) Tendencia (hPa) Humedad (%)
2018-08-18 23:00:00 17.7 15 Nordeste 19 Nordeste 0 -- -- 36
2018-08-18 22:00:00 19 12 Nordeste 14 Nordeste 0 -- -- 31
2018-08-18 21:00:00 23 11 Nordeste 30 Nordeste 0 -- -- 25
2018-08-18 20:00:00 25.6 19 Nordeste 31 Nordeste 0 -- -- 19
2018-08-18 19:00:00 26.5 21 Este 31 Nordeste 0 -- -- 18
2018-08-18 18:00:00 25.7 17 Nordeste 30 Este 0 -- -- 20
2018-08-18 17:00:00 25.1 17 Nordeste 33 Nordeste 0 -- -- 24
2018-08-18 16:00:00 24.7 23 Nordeste 35 Nordeste 0 -- -- 23
2018-08-18 15:00:00 24.4 21 Nordeste 35 Nordeste 0 -- -- 27
2018-08-18 14:00:00 22.6 21 Este 35 Este 0 -- -- 35
2018-08-18 13:00:00 20.5 22 Nordeste 36 Nordeste 0 -- -- 41
2018-08-18 12:00:00 18.4 25 Nordeste 35 Nordeste 0 -- -- 50
2018-08-18 11:00:00 16.2 28 Nordeste 40 Nordeste 0 -- -- 58
2018-08-18 10:00:00 14.1 31 Nordeste 42 Nordeste 0 -- -- 66
2018-08-18 09:00:00 12.3 24 Nordeste 34 Nordeste 0 -- -- 73
2018-08-18 08:00:00 9.7 19 Nordeste 26 Nordeste 0 -- -- 83
2018-08-18 07:00:00 10.2 19 Nordeste 37 Nordeste 0 -- -- 80
2018-08-18 06:00:00 10.7 26 Nordeste 42 Nordeste 0 -- -- 77
2018-08-18 05:00:00 11.4 29 Nordeste 41 Este 0 -- -- 74
2018-08-18 04:00:00 11.8 26 Nordeste 40 Nordeste 0 -- -- 76
2018-08-18 03:00:00 12.3 28 Nordeste 41 Nordeste 0 -- -- 76
2018-08-18 02:00:00 12.9 27 Nordeste 39 Nordeste 0 -- -- 75
2018-08-18 01:00:00 13.6 23 Nordeste 42 Nordeste 0 -- -- 74
2018-08-18 00:00:00 15 29 Nordeste 47 Este 0 -- -- 68
2018-08-17 23:00:00 17 24 Nordeste 39 Nordeste 0 -- -- 64
2018-08-17 22:00:00 19.5 28 Este 43 Este 0 -- -- 58
2018-08-17 21:00:00 22.4 19 Este 33 Este 0 -- -- 49
2018-08-17 20:00:00 25 20 Este 29 Este 0 -- -- 41
2018-08-17 19:00:00 26.4 14 Este 28 Nordeste 0 -- -- 37
2018-08-17 18:00:00 26.2 19 Nordeste 33 Este 0 -- -- 39
2018-08-17 17:00:00 26.6 15 Nordeste 33 Nordeste 0 -- -- 40
2018-08-17 16:00:00 26.2 19 Este 34 Nordeste 0 -- -- 42
2018-08-17 15:00:00 26 18 Nordeste 33 Nordeste 0 -- -- 44
2018-08-17 14:00:00 25 19 Nordeste 37 Nordeste 0 -- -- 46
2018-08-17 13:00:00 23.2 22 Este 35 Nordeste 0 -- -- 50
2018-08-17 12:00:00 22.1 22 Nordeste 34 Nordeste 0 -- -- 54
2018-08-17 11:00:00 20.4 24 Nordeste 36 Nordeste 0 -- -- 60
2018-08-17 10:00:00 18.4 21 Nordeste 32 Nordeste 0 -- -- 67
2018-08-17 09:00:00 15.8 16 Nordeste 22 Nordeste 0 -- -- 75
2018-08-17 08:00:00 13.2 16 Nordeste 21 Nordeste 0 -- -- 84
2018-08-17 07:00:00 13.2 16 Nordeste 20 Nordeste 0 -- -- 85
2018-08-17 06:00:00 14 15 Nordeste 22 Nordeste 0 -- -- 83
2018-08-17 05:00:00 14.2 14 Nordeste 22 Nordeste 0 -- -- 84
2018-08-17 04:00:00 15.3 17 Nordeste 26 Este 0 -- -- 85
2018-08-17 03:00:00 16.2 17 Nordeste 32 Nordeste 0 -- -- 82
2018-08-17 02:00:00 17.2 26 Nordeste 37 Nordeste 0 -- -- 78
2018-08-17 01:00:00 18.1 23 Nordeste 39 Este 0 -- -- 74
2018-08-17 00:00:00 19.8 23 Este 41 Este 0 -- -- 69
2018-08-16 23:00:00 22.2 22 Este 33 Este 0 -- -- 59
2018-08-16 22:00:00 23 8 Oeste 20 Oeste 0 -- -- 44
2018-08-16 21:00:00 26.1 13 Oeste 29 Oeste 0 -- -- 35
2018-08-16 20:00:00 28.9 19 Oeste 32 Oeste 0 -- -- 25
2018-08-16 19:00:00 30.6 16 Oeste 37 Oeste 0 -- -- 30
2018-08-16 18:00:00 31.1 13 Oeste 36 Sudoeste 0 -- -- 22
2018-08-16 17:00:00 31 15 Oeste 34 Sudoeste 0 -- -- 24
2018-08-16 16:00:00 30.9 19 Sudoeste 36 Sudoeste 0 -- -- 27
2018-08-16 15:00:00 30.6 12 Sudoeste 32 Sudoeste 0 -- -- 27
2018-08-16 14:00:00 29.3 13 Oeste 28 Sudoeste 0 -- -- 29
2018-08-16 13:00:00 27.7 13 Oeste 25 Oeste 0 -- -- 35
2018-08-16 12:00:00 27.1 7 Sudoeste 13 Oeste 0 -- -- 39
2018-08-16 11:00:00 26.7 5 Oeste 19 Sur 0 -- -- 42
2018-08-16 10:00:00 27.4 2 Noroeste 5 Este 0 -- -- 42
2018-08-16 09:00:00 21 4 Norte 10 Nordeste 0 -- -- 54
2018-08-16 08:00:00 15.4 10 Nordeste 13 Este 0 -- -- 66
2018-08-16 07:00:00 16.1 5 Nordeste 6 Nordeste 0 -- -- 63
2018-08-16 06:00:00 15.7 4 Norte 9 Noroeste 0 -- -- 59
2018-08-16 05:00:00 16 4 Oeste 7 Sur 0 -- -- 50
2018-08-16 04:00:00 16.9 10 Este 17 Nordeste 0 -- -- 46
2018-08-16 03:00:00 18.8 14 Nordeste 16 Nordeste 0 -- -- 40
2018-08-16 02:00:00 17.5 4 Nordeste 15 Norte 0 -- -- 46
2018-08-16 01:00:00 20.1 3 Norte 10 Nordeste 0 -- -- 39
2018-08-16 00:00:00 20.9 5 Noroeste 9 Sur 0 -- -- 38
2018-08-15 23:00:00 23.7 6 Oeste 9 Oeste 0 -- -- 33
2018-08-15 22:00:00 24.1 4 Sudoeste 10 Oeste 0 -- -- 32
2018-08-15 21:00:00 28.5 6 Oeste 10 Noroeste 0 -- -- 25
2018-08-15 20:00:00 31.6 4 Sudoeste 14 Noroeste 0 -- -- 19
2018-08-15 19:00:00 33 5 Noroeste 17 Oeste 0 -- -- 19
2018-08-15 18:00:00 32.3 7 Noroeste 16 Noroeste 0 -- -- 18
2018-08-15 17:00:00 31.4 8 Oeste 17 Noroeste 0 -- -- 20
2018-08-15 16:00:00 29 6 Este 16 Este 0 -- -- 26
2018-08-15 15:00:00 28.6 9 Norte 19 Nordeste 0 -- -- 30
2018-08-15 14:00:00 26.7 8 Nordeste 24 Este 0 -- -- 37
2018-08-15 13:00:00 24 15 Nordeste 29 Nordeste 0 -- -- 43
2018-08-15 12:00:00 21.5 18 Nordeste 28 Nordeste 0 -- -- 54
2018-08-15 11:00:00 19.2 22 Nordeste 36 Nordeste 0 -- -- 61
2018-08-15 10:00:00 16.8 27 Nordeste 43 Nordeste 0 -- -- 71
2018-08-15 09:00:00 14.7 24 Nordeste 32 Nordeste 0 -- -- 79
2018-08-15 08:00:00 12.4 17 Nordeste 28 Nordeste 0 -- -- 87
2018-08-15 07:00:00 12.6 20 Nordeste 30 Nordeste 0 -- -- 87
2018-08-15 06:00:00 13.3 19 Nordeste 28 Nordeste 0 -- -- 84
2018-08-15 05:00:00 13.6 19 Nordeste 24 Nordeste 0 -- -- 84
2018-08-15 04:00:00 14.4 17 Nordeste 24 Nordeste 0 -- -- 80
2018-08-15 03:00:00 15.2 13 Nordeste 37 Nordeste 0 -- -- 75
2018-08-15 02:00:00 16.7 25 Nordeste 35 Nordeste 0 -- -- 66
2018-08-15 01:00:00 18.1 21 Nordeste 28 Nordeste 0 -- -- 59
2018-08-15 00:00:00 19 17 Nordeste 23 Nordeste 0 -- -- 54
2018-08-14 23:00:00 19 10 Este 16 Este 0 -- -- 49
2018-08-14 22:00:00 20.4 10 Este 14 Este 0 -- -- 44
2018-08-14 21:00:00 25.2 9 Nordeste 19 Nordeste 0 -- -- 35
2018-08-14 20:00:00 27.9 13 Este 24 Nordeste 0 -- -- 29
2018-08-14 19:00:00 28.5 15 Este 28 Nordeste 0 -- -- 26
2018-08-14 18:00:00 29.1 16 Este 31 Nordeste 0 -- -- 25
2018-08-14 17:00:00 28.8 16 Este 36 Este 0 -- -- 28
2018-08-14 16:00:00 27.8 18 Este 31 Este 0 -- -- 30
2018-08-14 15:00:00 26.7 16 Nordeste 35 Este 0 -- -- 34
2018-08-14 14:00:00 25.3 18 Nordeste 32 Nordeste 0 -- -- 38
2018-08-14 13:00:00 24 20 Nordeste 31 Nordeste 0 -- -- 47
2018-08-14 12:00:00 21.8 21 Este 36 Nordeste 0 -- -- 51
2018-08-14 11:00:00 19.6 24 Este 36 Nordeste 0 -- -- 60
2018-08-14 10:00:00 17.7 26 Nordeste 39 Este 0 -- -- 68
2018-08-14 09:00:00 15.7 25 Nordeste 37 Este 0 -- -- 78
2018-08-14 08:00:00 13.6 19 Nordeste 35 Nordeste 0 -- -- 87
2018-08-14 07:00:00 13.3 22 Nordeste 29 Este 0 -- -- 89
2018-08-14 06:00:00 13.9 23 Nordeste 32 Nordeste 0 -- -- 87
2018-08-14 05:00:00 14.5 22 Nordeste 31 Nordeste 0 -- -- 86
2018-08-14 04:00:00 15 19 Este 29 Este 0 -- -- 82
2018-08-14 03:00:00 16.6 21 Nordeste 27 Este 0 -- -- 69
2018-08-14 02:00:00 18 19 Nordeste 27 Nordeste 0 -- -- 66
2018-08-14 01:00:00 17.8 17 Nordeste 21 Nordeste 0 -- -- 68
2018-08-14 00:00:00 17.7 8 Este 12 Este 0 -- -- 58
2018-08-13 23:00:00 19 2 Norte 12 Noroeste 0 -- -- 53
2018-08-13 22:00:00 20.7 8 Noroeste 19 Oeste 0 -- -- 52
2018-08-13 21:00:00 25 13 Oeste 24 Oeste 0 -- -- 41
2018-08-13 20:00:00 27.4 15 Noroeste 24 Oeste 0 -- -- 37
2018-08-13 19:00:00 29 12 Noroeste 25 Oeste 0 -- -- 32
2018-08-13 18:00:00 29.3 9 Oeste 24 Oeste 0 -- -- 33
2018-08-13 17:00:00 28.6 8 Oeste 28 Oeste 0 -- -- 31
2018-08-13 16:00:00 26.8 13 Sudoeste 23 Sudoeste 0 -- -- 34
2018-08-13 15:00:00 27.5 8 Norte 21 Sudoeste 0 -- -- 35
2018-08-13 14:00:00 25.2 10 Sudoeste 19 Sudoeste 0 -- -- 41
2018-08-13 13:00:00 24.6 8 Noroeste 15 Noroeste 0 -- -- 47
2018-08-13 12:00:00 23.6 6 Norte 12 Norte 0 -- -- 50
2018-08-13 11:00:00 20.7 5 Nordeste 10 Noroeste 0 -- -- 62
2018-08-13 10:00:00 17.9 6 Sudoeste 13 Sudoeste 0 -- -- 72
2018-08-13 09:00:00 15.9 5 Sudoeste 10 Sudoeste 0 -- -- 85
2018-08-13 08:00:00 12.6 2 Sur 9 Oeste 0 -- -- 95
2018-08-13 07:00:00 12.5 5 Sudoeste 9 Oeste 0 -- -- 95
2018-08-13 06:00:00 12.4 3 Oeste 14 Oeste 0 -- -- 92
2018-08-13 05:00:00 13.9 6 Oeste 17 Sudoeste 0 -- -- 87
2018-08-13 04:00:00 14.2 9 Sudoeste 23 Oeste 0 -- -- 85
2018-08-13 03:00:00 15.7 10 Oeste 26 Sudoeste 0 -- -- 79
2018-08-13 02:00:00 16.6 16 Sudoeste 25 Oeste 0 -- -- 78
2018-08-13 01:00:00 18 11 Sudoeste 32 Oeste 0 -- -- 73
2018-08-13 00:00:00 19.2 19 Oeste 31 Oeste 0 -- -- 71
2018-08-12 23:00:00 19.8 14 Oeste 33 Oeste 0 -- -- 68
2018-08-12 22:00:00 21.5 18 Oeste 33 Oeste 0 -- -- 60
2018-08-12 21:00:00 24.3 19 Oeste 32 Oeste 0 -- -- 52
2018-08-12 20:00:00 26.7 21 Oeste 34 Oeste 0 -- -- 38
2018-08-12 19:00:00 26.5 21 Oeste 34 Oeste 0 -- -- 42
2018-08-12 18:00:00 27 21 Oeste 33 Oeste 0 -- -- 40
2018-08-12 17:00:00 26.3 21 Oeste 36 Oeste 0 -- -- 37
2018-08-12 16:00:00 27.1 20 Oeste 39 Oeste 0 -- -- 29
2018-08-12 15:00:00 28.5 22 Sudoeste 36 Oeste 0 -- -- 26
2018-08-12 14:00:00 27.7 20 Sudoeste 37 Oeste 0 -- -- 29
2018-08-12 13:00:00 27.3 18 Oeste 32 Oeste 0 -- -- 31
2018-08-12 12:00:00 26.1 17 Sudoeste 28 Sudoeste 0 -- -- 33
2018-08-12 11:00:00 24.8 9 Sudoeste 15 Sudoeste 0 -- -- 45
2018-08-12 10:00:00 21.9 8 Sudoeste 15 Sudoeste 0 -- -- 53
2018-08-12 09:00:00 20.4 7 Sudoeste 10 Sudoeste 0 -- -- 56
2018-08-12 08:00:00 16.3 4 Oeste 5 Oeste 0 -- -- 66
2018-08-12 07:00:00 16.8 4 Sur 5 Sur 0 -- -- 63
2018-08-12 06:00:00 17 3 Sudoeste 5 Sur 0 -- -- 62
2018-08-12 05:00:00 17.3 5 Sur 10 Sudeste 0 -- -- 60
2018-08-12 04:00:00 17.8 3 Sur 8 Sudoeste 0 -- -- 58
2018-08-12 03:00:00 18.4 0 Calma 8 Noroeste 0 -- -- 56
2018-08-12 02:00:00 19 6 Noroeste 11 Noroeste 0 -- -- 54
2018-08-12 01:00:00 18.4 9 Noroeste 10 Noroeste 0 -- -- 51
2018-08-12 00:00:00 18.6 8 Noroeste 12 Oeste 0 -- -- 46
2018-08-11 23:00:00 21.6 6 Noroeste 8 Noroeste 0 -- -- 36
2018-08-11 22:00:00 22.8 7 Noroeste 12 Noroeste 0 -- -- 36
2018-08-11 21:00:00 28 10 Oeste 23 Oeste 0 -- -- 29
2018-08-11 20:00:00 30.1 12 Oeste 27 Oeste 0 -- -- 22
2018-08-11 19:00:00 31.5 12 Oeste 31 Sudoeste 0 -- -- 23
2018-08-11 18:00:00 32.2 9 Oeste 26 Oeste 0 -- -- 24
2018-08-11 17:00:00 31.6 12 Sudoeste 28 Oeste 0 -- -- 24
2018-08-11 16:00:00 30.8 10 Sudoeste 26 Oeste 0 -- -- 23
2018-08-11 15:00:00 30.2 9 Oeste 22 Sudoeste 0 -- -- 27
2018-08-11 14:00:00 29.3 6 Este 18 Este 0 -- -- 30
2018-08-11 13:00:00 27.6 6 Este 16 Este 0 -- -- 32
2018-08-11 12:00:00 25.8 8 Este 15 Nordeste 0 -- -- 43
2018-08-11 11:00:00 23.3 10 Nordeste 22 Este 0 -- -- 52
2018-08-11 10:00:00 20 16 Nordeste 25 Nordeste 0 -- -- 60
2018-08-11 09:00:00 17.1 14 Nordeste 18 Nordeste 0 -- -- 69
2018-08-11 08:00:00 13.5 15 Nordeste 21 Nordeste 0 -- -- 82
2018-08-11 07:00:00 13 17 Nordeste 19 Nordeste 0 -- -- 84
2018-08-11 06:00:00 13.5 16 Nordeste 21 Nordeste 0 -- -- 81
2018-08-11 05:00:00 13.7 15 Nordeste 17 Nordeste 0 -- -- 78
2018-08-11 04:00:00 13.5 15 Nordeste 19 Nordeste 0 -- -- 67
2018-08-11 03:00:00 15 15 Nordeste 18 Nordeste 0 -- -- 56
2018-08-11 02:00:00 15.7 13 Nordeste 15 Nordeste 0 -- -- 53
2018-08-11 01:00:00 16.9 13 Norte 14 Norte 0 -- -- 50
2018-08-11 00:00:00 17.6 13 Norte 15 Nordeste 0 -- -- 49
2018-08-10 23:00:00 19.3 10 Nordeste 13 Nordeste 0 -- -- 43
2018-08-10 22:00:00 23.5 4 Nordeste -- -- 0 -- -- 29
2018-08-10 21:00:00 26.6 3 Nordeste 10 Nordeste 0 -- -- 26
2018-08-10 20:00:00 28.2 8 Nordeste 15 Nordeste 0 -- -- 24
2018-08-10 19:00:00 28.9 8 Norte 18 Nordeste 0 -- -- 24
2018-08-10 18:00:00 28.6 4 Sudoeste 19 Nordeste 0 -- -- 25
2018-08-10 17:00:00 27.2 8 Oeste 18 Nordeste 0 -- -- 29
2018-08-10 16:00:00 27 8 Nordeste 27 Este 0 -- -- 30
2018-08-10 15:00:00 26.5 9 Norte 20 Este 0 -- -- 31
2018-08-10 14:00:00 24.3 12 Este 26 Nordeste 0 -- -- 38
2018-08-10 13:00:00 22.9 15 Nordeste 28 Nordeste 0 -- -- 41
2018-08-10 12:00:00 20.6 19 Nordeste 29 Nordeste 0 -- -- 48
2018-08-10 11:00:00 18 20 Nordeste 32 Nordeste 0 -- -- 56
2018-08-10 10:00:00 15.4 23 Nordeste 35 Nordeste 0 -- -- 66
2018-08-10 09:00:00 13.2 25 Nordeste 35 Nordeste 0 -- -- 73
2018-08-10 08:00:00 10.7 18 Nordeste 26 Nordeste 0 -- -- 82
2018-08-10 07:00:00 10.2 21 Nordeste 28 Nordeste 0 -- -- 83
2018-08-10 06:00:00 10.7 18 Nordeste 33 Nordeste 0 -- -- 79
2018-08-10 05:00:00 11.3 20 Nordeste 33 Nordeste 0 -- -- 77
2018-08-10 04:00:00 11.5 22 Nordeste 31 Nordeste 0 -- -- 75
2018-08-10 03:00:00 12.2 22 Nordeste 33 Nordeste 0 -- -- 71
2018-08-10 02:00:00 13.2 23 Nordeste 37 Este 0 -- -- 67
2018-08-10 01:00:00 14.7 24 Nordeste 36 Nordeste 0 -- -- 65
2018-08-10 00:00:00 15.8 17 Nordeste 27 Nordeste 0 -- -- 57
2018-08-09 23:00:00 14.7 10 Norte 15 Norte 0 -- -- 54
2018-08-09 22:00:00 17.7 12 Nordeste 17 Nordeste 0 -- -- 46
2018-08-09 21:00:00 21.4 10 Nordeste 14 Nordeste 0 -- -- 38
2018-08-09 20:00:00 24.4 8 Este 13 Este 0 -- -- 30
2018-08-09 19:00:00 25.9 5 Sur 12 Nordeste 0 -- -- 29
2018-08-09 18:00:00 23.1 9 Nordeste 19 Este 0 -- -- 34
2018-08-09 17:00:00 24.8 15 Nordeste 28 Este 0 -- -- 31
2018-08-09 16:00:00 25 6 Norte 22 Norte 0 -- -- 30
2018-08-09 15:00:00 22.2 11 Norte 17 Nordeste 0 -- -- 38
2018-08-09 14:00:00 23.9 6 Nordeste 22 Noroeste 0 -- -- 36
2018-08-09 13:00:00 22.6 9 Norte 21 Nordeste 0 -- -- 40
2018-08-09 12:00:00 22.2 10 Nordeste 19 Nordeste 0 -- -- 40
2018-08-09 11:00:00 19.8 9 Norte 15 Noroeste 0 -- -- 51
2018-08-09 10:00:00 17.3 4 Sudeste 11 Este 0 -- -- 58
2018-08-09 09:00:00 15.9 2 Sur 7 Nordeste 0 -- -- 68
2018-08-09 08:00:00 10.3 6 Nordeste 8 Nordeste 0 -- -- 89
2018-08-09 07:00:00 8.4 0 Calma 6 Nordeste 0 -- -- 95
2018-08-09 06:00:00 8.8 4 Sur 10 Sudoeste 0 -- -- 94
2018-08-09 05:00:00 10.4 9 Sudoeste 19 Sudoeste 0 -- -- 87
2018-08-09 04:00:00 12.6 13 Oeste 19 Oeste 0 -- -- 77
2018-08-09 03:00:00 13.5 12 Oeste 18 Sudoeste 0 -- -- 77
2018-08-09 02:00:00 15.1 15 Oeste 26 Oeste 0 -- -- 74
2018-08-09 01:00:00 14.8 12 Sudoeste 17 Noroeste 0 -- -- 80
2018-08-09 00:00:00 16.1 11 Oeste 34 Noroeste 0 -- -- 75
2018-08-08 23:00:00 17.4 24 Oeste 42 Oeste 0 -- -- 71
2018-08-08 22:00:00 20.2 18 Oeste 34 Oeste 0 -- -- 55
2018-08-08 21:00:00 23 22 Oeste 37 Oeste 0 -- -- 46
2018-08-08 20:00:00 25.4 22 Oeste 35 Sudoeste 0 -- -- 38
2018-08-08 19:00:00 27.2 17 Oeste 38 Oeste 0 -- -- 29
2018-08-08 18:00:00 27.2 23 Sudoeste 36 Oeste 0 -- -- 30
2018-08-08 17:00:00 27.9 18 Sudoeste 32 Sudoeste 0 -- -- 30
2018-08-08 16:00:00 26.8 18 Sudoeste 29 Sudoeste 0 -- -- 33
2018-08-08 15:00:00 26.8 11 Sudoeste 31 Sur 0 -- -- 37
2018-08-08 14:00:00 25.5 13 Sudeste 26 Sudeste 0 -- -- 42
2018-08-08 13:00:00 24.7 6 Sur 16 Sur 0 -- -- 45
2018-08-08 12:00:00 24.3 6 Norte 13 Sudeste 0 -- -- 49
2018-08-08 11:00:00 20.9 8 Nordeste 16 Este 0 -- -- 59
2018-08-08 10:00:00 19 10 Nordeste 13 Este 0 -- -- 64
2018-08-08 09:00:00 16.9 8 Nordeste 11 Nordeste 0 -- -- 75
2018-08-08 08:00:00 12.9 9 Nordeste 15 Nordeste 0 -- -- 93
2018-08-08 07:00:00 11.9 14 Nordeste 17 Nordeste 0 -- -- 96
2018-08-08 06:00:00 12 11 Nordeste 18 Nordeste 0 -- -- 96
2018-08-08 05:00:00 13.2 14 Nordeste 19 Nordeste 0 -- -- 92
2018-08-08 04:00:00 13 9 Nordeste 17 Nordeste 0 -- -- 90
2018-08-08 03:00:00 14 13 Nordeste 22 Nordeste 0 -- -- 85
2018-08-08 02:00:00 15.4 17 Nordeste 22 Nordeste 0 -- -- 69
2018-08-08 01:00:00 15.5 9 Nordeste 23 Nordeste 0 -- -- 62
2018-08-08 00:00:00 18.2 9 Oeste 14 Oeste 0 -- -- 51
2018-08-07 23:00:00 19.2 12 Oeste 21 Oeste 0 -- -- 48
2018-08-07 22:00:00 20.6 12 Oeste 27 Oeste 0 -- -- 44
2018-08-07 21:00:00 23.8 18 Oeste 31 Oeste 0 -- -- 33
2018-08-07 20:00:00 25.9 20 Oeste 31 Oeste 0 -- -- 31
2018-08-07 19:00:00 27.1 13 Oeste 31 Oeste 0 -- -- 35
2018-08-07 18:00:00 27.7 19 Oeste 29 Oeste 0 -- -- 34
2018-08-07 17:00:00 27.5 11 Oeste 27 Sudoeste 0 -- -- 35
2018-08-07 16:00:00 27.6 9 Noroeste 21 Noroeste 0 -- -- 32
2018-08-07 15:00:00 25.3 8 Oeste 22 Noroeste 0 -- -- 36
2018-08-07 14:00:00 24.6 5 Nordeste 18 Sudoeste 0 -- -- 38
2018-08-07 13:00:00 23.2 5 Sur 17 Nordeste 0 -- -- 46
2018-08-07 12:00:00 21.5 3 Sudeste 11 Norte 0 -- -- 51
2018-08-07 11:00:00 19.8 6 Noroeste 13 Noroeste 0 -- -- 57
2018-08-07 10:00:00 16.8 8 Sudoeste 23 Sudoeste 0 -- -- 72
2018-08-07 09:00:00 14 13 Sudoeste 22 Sudoeste 0 -- -- 88
2018-08-07 08:00:00 12.3 11 Sudoeste 22 Sudoeste 0 -- -- 95
2018-08-07 07:00:00 11.5 14 Sudoeste 26 Sudoeste 0 -- -- 95
2018-08-07 06:00:00 12.1 17 Sudoeste 27 Sudoeste 0 -- -- 89
2018-08-07 05:00:00 13.7 19 Sudoeste 26 Sudoeste 0 -- -- 80
2018-08-07 04:00:00 14 12 Sudoeste 25 Oeste 0 -- -- 81
2018-08-07 03:00:00 16.2 17 Oeste 27 Oeste 0 -- -- 73
2018-08-07 02:00:00 18.2 13 Oeste 19 Oeste 0 -- -- 49
2018-08-07 01:00:00 20.5 7 Sudoeste 19 Sudoeste 0 -- -- 38
2018-08-07 00:00:00 22.2 14 Sudoeste 20 Sudoeste 0 -- -- 38
2018-08-06 23:00:00 23.8 9 Sudoeste 27 Oeste 0 -- -- 35
2018-08-06 22:00:00 27.7 16 Sudoeste 24 Sudoeste 0 -- -- 31
2018-08-06 21:00:00 30.7 15 Oeste 31 Oeste 0 -- -- 25
2018-08-06 20:00:00 33.6 18 Oeste 33 Oeste 0 -- -- 21
2018-08-06 19:00:00 35.4 23 Oeste 35 Oeste 0 -- -- 18
2018-08-06 18:00:00 36.2 19 Sudoeste 35 Sudoeste 0 -- -- 18
2018-08-06 17:00:00 36.2 19 Sudoeste 33 Oeste 0 -- -- 17
2018-08-06 16:00:00 35.3 18 Oeste 39 Sudoeste 0 -- -- 19
2018-08-06 15:00:00 34.8 17 Sudoeste 29 Oeste 0 -- -- 23
2018-08-06 14:00:00 33.2 12 Sudoeste 21 Sudoeste 0 -- -- 27
2018-08-06 13:00:00 32 9 Oeste 17 Sudoeste 0 -- -- 36
2018-08-06 12:00:00 30.5 6 Sur 10 Sur 0 -- -- 41
2018-08-06 11:00:00 29.7 3 Nordeste 9 Este 0 -- -- 44
2018-08-06 10:00:00 25.4 6 Nordeste 11 Este 0 -- -- 53
2018-08-06 09:00:00 21.7 6 Este 10 Este 0 -- -- 62
2018-08-06 08:00:00 19 6 Este 10 Este 0 -- -- 62
2018-08-06 07:00:00 20 5 Sudeste 14 Este 0 -- -- 57
2018-08-06 06:00:00 21.1 12 Este 16 Este 0 -- -- 53
2018-08-06 05:00:00 22.8 8 Este 15 Este 0 -- -- 44
2018-08-06 04:00:00 21.4 11 Este 15 Este 0 -- -- 49
2018-08-06 03:00:00 24 8 Nordeste 9 Nordeste 0 -- -- 39
2018-08-06 02:00:00 24.8 0 Calma 4 Noroeste 0 -- -- 39
2018-08-06 01:00:00 24.1 0 Calma 10 Noroeste 0 -- -- 42
2018-08-06 00:00:00 25.8 9 Noroeste 10 Noroeste 0 -- -- 42
2018-08-05 23:00:00 25.9 8 Noroeste 9 Noroeste 0 -- -- 44
2018-08-05 22:00:00 26.9 6 Noroeste 13 Noroeste 0 -- -- 43
2018-08-05 21:00:00 30.9 10 Oeste 15 Oeste 0 -- -- 35
2018-08-05 20:00:00 33.7 9 Oeste 15 Oeste 0 -- -- 29
2018-08-05 19:00:00 37.3 5 Noroeste 14 Sudoeste 0 -- -- 23
2018-08-05 18:00:00 36.1 5 Oeste 18 Norte 0 -- -- 22
2018-08-05 17:00:00 35.4 6 Este 18 Norte 0 -- -- 24
2018-08-05 16:00:00 33.7 7 Este 18 Este 0 -- -- 26
2018-08-05 15:00:00 32.4 4 Sur 15 Este 0 -- -- 31
2018-08-05 14:00:00 32 6 Norte 19 Este 0 -- -- 31
2018-08-05 13:00:00 29.7 7 Este 21 Nordeste 0 -- -- 36
2018-08-05 12:00:00 27.5 14 Nordeste 25 Este 0 -- -- 42
2018-08-05 11:00:00 25.6 17 Este 26 Nordeste 0 -- -- 46
2018-08-05 10:00:00 23.1 19 Nordeste 25 Este 0 -- -- 54
2018-08-05 09:00:00 20.6 15 Nordeste 19 Nordeste 0 -- -- 62
2018-08-05 08:00:00 18.2 16 Nordeste 19 Nordeste 0 -- -- 70
2018-08-05 07:00:00 17.5 15 Nordeste 21 Nordeste 0 -- -- 74
2018-08-05 06:00:00 18.6 15 Nordeste 22 Nordeste 0 -- -- 71
2018-08-05 05:00:00 19.1 17 Nordeste 22 Nordeste 0 -- -- 71
2018-08-05 04:00:00 20 17 Nordeste 21 Nordeste 0 -- -- 69
2018-08-05 03:00:00 20.7 16 Nordeste 19 Nordeste 0 -- -- 66
2018-08-05 02:00:00 21.2 13 Nordeste 18 Nordeste 0 -- -- 58
2018-08-05 01:00:00 22.9 14 Nordeste 19 Norte 0 -- -- 48
2018-08-05 00:00:00 23.7 15 Norte 18 Norte 0 -- -- 44
2018-08-04 23:00:00 24.5 10 Norte 14 Norte 0 -- -- 40
2018-08-04 22:00:00 26.7 10 Norte 12 Norte 0 -- -- 34
2018-08-04 21:00:00 32 11 Norte 24 Noroeste 0 -- -- 26
2018-08-04 20:00:00 35.3 15 Noroeste 23 Noroeste 0 -- -- 18
2018-08-04 19:00:00 36.8 20 Noroeste 31 Noroeste 0 -- -- 17
2018-08-04 18:00:00 37.4 14 Noroeste 26 Noroeste 0 -- -- 18
2018-08-04 17:00:00 37.2 11 Noroeste 26 Norte 0 -- -- 21
2018-08-04 16:00:00 36.4 11 Noroeste 22 Sudoeste 0 -- -- 20
2018-08-04 15:00:00 35.2 5 Oeste 16 Sudeste 0 -- -- 25
2018-08-04 14:00:00 34 7 Este 13 Este 0 -- -- 26
2018-08-04 13:00:00 32.3 7 Sudeste 17 Este 0 -- -- 26
2018-08-04 12:00:00 30.4 9 Nordeste 18 Este 0 -- -- 34
2018-08-04 11:00:00 27.5 15 Nordeste 22 Nordeste 0 -- -- 42
2018-08-04 10:00:00 25 14 Nordeste 21 Nordeste 0 -- -- 49
2018-08-04 09:00:00 21.9 13 Nordeste 17 Nordeste 0 -- -- 48
2018-08-04 08:00:00 19.4 14 Norte 16 Norte 0 -- -- 55
2018-08-04 07:00:00 18.7 13 Norte 14 Norte 0 -- -- 51
2018-08-04 06:00:00 18.7 8 Norte 17 Nordeste 0 -- -- 49
2018-08-04 05:00:00 21.3 16 Nordeste 21 Nordeste 0 -- -- 41
2018-08-04 04:00:00 22.6 16 Nordeste 21 Nordeste 0 -- -- 38
2018-08-04 03:00:00 22.7 17 Este 18 Este 0 -- -- 48
2018-08-04 02:00:00 23.8 14 Este 23 Nordeste 0 -- -- 51
2018-08-04 01:00:00 25.4 16 Nordeste 27 Este 0 -- -- 46
2018-08-04 00:00:00 25.8 13 Norte 14 Norte 0 -- -- 46
2018-08-03 23:00:00 26.7 8 Nordeste 13 Norte 0 -- -- 47
2018-08-03 22:00:00 28.9 11 Norte 18 Noroeste 0 -- -- 41
2018-08-03 21:00:00 32.3 13 Noroeste 22 Noroeste 0 -- -- 33
2018-08-03 20:00:00 36 18 Noroeste 30 Norte 0 -- -- 24
2018-08-03 19:00:00 37.8 21 Noroeste 33 Norte 0 -- -- 21
2018-08-03 18:00:00 38 23 Norte 33 Norte 0 -- -- 21
2018-08-03 17:00:00 38.7 18 Norte 38 Nordeste 0 -- -- 20
2018-08-03 16:00:00 38 11 Norte 24 Oeste 0 -- -- 21
2018-08-03 15:00:00 37.8 12 Noroeste 22 Oeste 0 -- -- 25
2018-08-03 14:00:00 36.2 9 Sudoeste 21 Oeste 0 -- -- 24
2018-08-03 13:00:00 35.8 2 Noroeste 12 Nordeste 0 -- -- 31
2018-08-03 12:00:00 32.2 7 Nordeste 15 Nordeste 0 -- -- 41
2018-08-03 11:00:00 28.7 11 Este 16 Nordeste 0 -- -- 47
2018-08-03 10:00:00 26.8 9 Nordeste 14 Nordeste 0 -- -- 51
2018-08-03 09:00:00 23.9 12 Nordeste 14 Nordeste 0 -- -- 56
2018-08-03 08:00:00 21.2 12 Nordeste 17 Nordeste 0 -- -- 61
2018-08-03 07:00:00 21.1 15 Nordeste 17 Nordeste 0 -- -- 59
2018-08-03 06:00:00 21.4 14 Nordeste 15 Nordeste 0 -- -- 60
2018-08-03 05:00:00 22.2 14 Nordeste 17 Nordeste 0 -- -- 57
2018-08-03 04:00:00 23 13 Nordeste 15 Nordeste 0 -- -- 54
2018-08-03 03:00:00 24 14 Nordeste 16 Nordeste 0 -- -- 50
2018-08-03 02:00:00 24.6 10 Nordeste 14 Norte 0 -- -- 49
2018-08-03 01:00:00 24.9 13 Nordeste 14 Nordeste 0 -- -- 50
2018-08-03 00:00:00 25.3 12 Nordeste 15 Nordeste 0 -- -- 51
2018-08-02 23:00:00 26 12 Norte 14 Norte 0 -- -- 48
2018-08-02 22:00:00 27.7 10 Norte 13 Norte 0 -- -- 39
2018-08-02 21:00:00 32.3 6 Norte 9 Noroeste 0 -- -- 29
2018-08-02 20:00:00 35.7 6 Sudoeste 12 Sudeste 0 -- -- 26
2018-08-02 19:00:00 37.9 2 Sur 18 Sudoeste 0 -- -- 21
2018-08-02 18:00:00 37.5 5 Sur 21 Sudoeste 0 -- -- 22
2018-08-02 17:00:00 37.3 5 Sur 32 Sur 0 -- -- 22
2018-08-02 16:00:00 35.6 5 Este 18 Sudeste 0 -- -- 28
2018-08-02 15:00:00 34.7 5 Nordeste 16 Sudeste 0 -- -- 27
2018-08-02 14:00:00 33.4 8 Sudeste 18 Sudeste 0 -- -- 33
2018-08-02 13:00:00 32.5 7 Nordeste 18 Nordeste 0 -- -- 39
2018-08-02 12:00:00 29.4 13 Nordeste 21 Nordeste 0 -- -- 45
2018-08-02 11:00:00 26.6 16 Nordeste 23 Nordeste 0 -- -- 53
2018-08-02 10:00:00 23.6 16 Nordeste 28 Nordeste 0 -- -- 65
2018-08-02 09:00:00 20.4 18 Nordeste 25 Nordeste 0 -- -- 77
2018-08-02 08:00:00 17.3 20 Nordeste 25 Nordeste 0 -- -- 87
2018-08-02 07:00:00 17 20 Nordeste 26 Nordeste 0 -- -- 88
2018-08-02 06:00:00 17.9 21 Nordeste 26 Nordeste 0 -- -- 86
2018-08-02 05:00:00 17.8 19 Nordeste 23 Nordeste 0 -- -- 88
2018-08-02 04:00:00 18.6 17 Nordeste 23 Este 0 -- -- 86
2018-08-02 03:00:00 19.4 17 Nordeste 26 Nordeste 0 -- -- 81
2018-08-02 02:00:00 20.7 18 Nordeste 23 Nordeste 0 -- -- 62
2018-08-02 01:00:00 20.9 13 Nordeste 18 Nordeste 0 -- -- 56
2018-08-02 00:00:00 22 12 Nordeste 13 Nordeste 0 -- -- 51
2018-08-01 23:00:00 23.4 12 Norte 13 Norte 0 -- -- 48
2018-08-01 22:00:00 25.8 8 Nordeste 10 Nordeste 0 -- -- 45
2018-08-01 21:00:00 30.5 8 Nordeste 11 Nordeste 0 -- -- 35
2018-08-01 20:00:00 33.2 3 Este 14 Este 0 -- -- 27
2018-08-01 19:00:00 33.5 5 Nordeste 24 Sur 0 -- -- 29
2018-08-01 18:00:00 33.3 5 Nordeste 13 Este 0 -- -- 27
2018-08-01 17:00:00 31.9 6 Este 17 Sur 0 -- -- 34
2018-08-01 16:00:00 30.8 6 Sudeste 20 Sudeste 0 -- -- 37
2018-08-01 15:00:00 29.5 8 Nordeste 23 Este 0 -- -- 40
2018-08-01 14:00:00 28.9 9 Nordeste 23 Este 0 -- -- 44
2018-08-01 13:00:00 27.2 12 Nordeste 26 Nordeste 0 -- -- 50
2018-08-01 12:00:00 24.5 14 Nordeste 23 Nordeste 0 -- -- 57
2018-08-01 11:00:00 22.4 15 Nordeste 24 Este 0 -- -- 65
2018-08-01 10:00:00 20 18 Nordeste 25 Nordeste 0 -- -- 74
2018-08-01 09:00:00 17.5 17 Nordeste 23 Nordeste 0 -- -- 82
2018-08-01 08:00:00 14.8 16 Nordeste 26 Nordeste 0 -- -- 92
2018-08-01 07:00:00 14.3 20 Nordeste 26 Nordeste 0 -- -- 94
2018-08-01 06:00:00 14 18 Nordeste 22 Nordeste 0 -- -- 95
2018-08-01 05:00:00 14.7 19 Nordeste 23 Nordeste 0 -- -- 93
2018-08-01 04:00:00 14.7 19 Nordeste 22 Nordeste 0 -- -- 90
2018-08-01 03:00:00 14.9 15 Este 17 Nordeste 0 -- -- 85
2018-08-01 02:00:00 16.1 13 Nordeste 25 Nordeste 0 -- -- 78
2018-08-01 01:00:00 17.3 6 Norte 11 Noroeste 0 -- -- 73
2018-08-01 00:00:00 17.6 9 Noroeste 12 Noroeste 0 -- -- 71
2018-07-31 23:00:00 19.1 7 Noroeste 13 Noroeste 0 -- -- 60
2018-07-31 22:00:00 20.5 9 Noroeste 18 Oeste 0 -- -- 57
2018-07-31 21:00:00 25.7 15 Noroeste 22 Oeste 0 -- -- 43
2018-07-31 20:00:00 28 13 Oeste 28 Sudoeste 0 -- -- 38
2018-07-31 19:00:00 28.7 14 Sudoeste 26 Sudoeste 0 -- -- 34
2018-07-31 18:00:00 28.8 15 Sudoeste 24 Sudoeste 0 -- -- 37
2018-07-31 17:00:00 28.9 11 Sudoeste 27 Sur 0 -- -- 38
2018-07-31 16:00:00 28.8 8 Sudoeste 26 Sudoeste 0 -- -- 40
2018-07-31 15:00:00 27.5 9 Oeste 22 Sudoeste 0 -- -- 43
2018-07-31 14:00:00 27.7 5 Oeste 11 Sudoeste 0 -- -- 46
2018-07-31 13:00:00 25.7 7 Norte 15 Noroeste 0 -- -- 56
2018-07-31 12:00:00 24.2 6 Noroeste 15 Noroeste 0 -- -- 60
2018-07-31 11:00:00 23.2 4 Noroeste 9 Norte 0 -- -- 64
2018-07-31 10:00:00 18.3 0 Calma 8 Noroeste 0 -- -- 94
2018-07-31 09:00:00 15 6 Noroeste 10 Oeste 0 -- -- 99
2018-07-31 08:00:00 13.9 2 Oeste 10 Sudoeste 0 -- -- 100
2018-07-31 07:00:00 13.1 6 Sur 9 Sudoeste 0 -- -- 100
2018-07-31 06:00:00 13.1 3 Sur 9 Sudeste 0 -- -- 100
2018-07-31 05:00:00 13.1 4 Sur 11 Sudoeste 0 -- -- 98
2018-07-31 04:00:00 14.4 8 Oeste 16 Sudoeste 0 -- -- 96
2018-07-31 03:00:00 14.7 9 Oeste 17 Oeste 0 -- -- 95
2018-07-31 02:00:00 15.3 14 Sudoeste 17 Oeste 0 -- -- 93
2018-07-31 01:00:00 16.2 8 Sudoeste 29 Oeste 0 -- -- 87
2018-07-31 00:00:00 18 15 Oeste 24 Oeste 0 -- -- 80
2018-07-30 23:00:00 18.6 13 Oeste 18 Sudoeste 0 -- -- 75
2018-07-30 22:00:00 20.4 10 Sudoeste 28 Oeste 0 -- -- 67
2018-07-30 21:00:00 23.8 18 Oeste 32 Oeste 0 -- -- 56
2018-07-30 20:00:00 24.3 18 Oeste 34 Oeste 0 -- -- 54
2018-07-30 19:00:00 25.9 20 Oeste 36 Sudoeste 0 -- -- 48
2018-07-30 18:00:00 26.2 20 Oeste 40 Oeste 0 -- -- 45
2018-07-30 17:00:00 26 23 Sudoeste 38 Sudoeste 0 -- -- 47
2018-07-30 16:00:00 25.5 21 Sudoeste 37 Sudoeste 0 -- -- 47
2018-07-30 15:00:00 25 24 Sudoeste 40 Sudoeste 0 -- -- 53
2018-07-30 14:00:00 24.4 14 Sudoeste 26 Sudoeste 0 -- -- 57
2018-07-30 13:00:00 23.3 13 Sudoeste 31 Sudoeste 0 -- -- 59
2018-07-30 12:00:00 21.3 12 Sudoeste 24 Sudoeste 0 -- -- 64
2018-07-30 11:00:00 18.8 13 Sudoeste 19 Sudoeste 0 -- -- 72
2018-07-30 10:00:00 14.4 11 Sudoeste 19 Sudoeste 0 -- -- 96
2018-07-30 09:00:00 12.8 12 Sudoeste 16 Sudoeste 0 -- -- 96
2018-07-30 08:00:00 12 13 Sudoeste 16 Oeste 0 -- -- 96
2018-07-30 07:00:00 11 3 Sudoeste 9 Sudoeste 0 -- -- 99
2018-07-30 06:00:00 12 6 Sudoeste 12 Sudoeste 0 -- -- 98
2018-07-30 05:00:00 12.8 5 Sudoeste 10 Sudoeste 0 -- -- 93
2018-07-30 04:00:00 13 4 Sudoeste 13 Oeste 0 -- -- 92
2018-07-30 03:00:00 13.6 6 Sudoeste 13 Oeste 0 -- -- 89
2018-07-30 02:00:00 14.7 7 Sudoeste 15 Oeste 0 -- -- 85
2018-07-30 01:00:00 16.5 13 Oeste 24 Oeste 0 -- -- 79
2018-07-30 00:00:00 16.9 9 Sudoeste 20 Sudoeste 0 -- -- 78
2018-07-29 23:00:00 18.9 14 Oeste 27 Sudoeste 0 -- -- 70
2018-07-29 22:00:00 20.7 17 Sudoeste 26 Oeste 0 -- -- 59
2018-07-29 21:00:00 23.6 21 Oeste 31 Sudoeste 0 -- -- 46
2018-07-29 20:00:00 25 21 Oeste 34 Oeste 0 -- -- 40
2018-07-29 19:00:00 24.9 22 Sudoeste 38 Oeste 0 -- -- 44
2018-07-29 18:00:00 25.5 20 Sudoeste 39 Sudoeste 0 -- -- 41
2018-07-29 17:00:00 24.7 23 Sudoeste 38 Sudoeste 0 -- -- 39
2018-07-29 16:00:00 24.6 22 Sudoeste 37 Oeste 0 -- -- 34
2018-07-29 15:00:00 23.4 21 Sudoeste 36 Sudoeste 0 -- -- 36
2018-07-29 14:00:00 22.1 17 Sudoeste 33 Sudoeste 0 -- -- 45
2018-07-29 13:00:00 19.9 22 Sudoeste 34 Sudoeste 0 -- -- 47
2018-07-29 12:00:00 18.1 23 Sudoeste 33 Sudoeste 0 -- -- 60
2018-07-29 11:00:00 16.6 20 Sudoeste 30 Oeste 0 -- -- 69
2018-07-29 10:00:00 14.8 14 Sudoeste 21 Sudoeste 0 -- -- 81
2018-07-29 09:00:00 11.9 12 Sudoeste 20 Sudoeste 0 -- -- 99
2018-07-29 08:00:00 11.4 14 Sudoeste 21 Sudoeste 0 -- -- 100
2018-07-29 07:00:00 10.5 13 Sudoeste 16 Sudoeste 0 -- -- 100
2018-07-29 06:00:00 11.1 11 Sudoeste 16 Sudoeste 0 -- -- 98
2018-07-29 05:00:00 11.8 12 Sudoeste 15 Sudoeste 0 -- -- 96
2018-07-29 04:00:00 13.4 14 Sudoeste 17 Sudoeste 0 -- -- 91
2018-07-29 03:00:00 14.9 14 Oeste 23 Sudoeste 0 -- -- 84
2018-07-29 02:00:00 14.9 7 Sudoeste 15 Sudoeste 0 -- -- 80
2018-07-29 01:00:00 16.4 11 Sudoeste 17 Oeste 0 -- -- 75
2018-07-29 00:00:00 18.2 10 Oeste 16 Sudoeste 0 -- -- 67
2018-07-28 23:00:00 19.7 12 Oeste 18 Oeste 0 -- -- 62
2018-07-28 22:00:00 21.6 10 Oeste 24 Oeste 0 -- -- 56
2018-07-28 21:00:00 24.8 14 Sudoeste 27 Sudoeste 0 -- -- 42
2018-07-28 20:00:00 26.1 19 Sudoeste 35 Sudoeste 0 -- -- 31
2018-07-28 19:00:00 27.1 19 Oeste 32 Oeste 0 -- -- 35
2018-07-28 18:00:00 27.2 18 Sudoeste 30 Sudoeste 0 -- -- 33
2018-07-28 17:00:00 26.6 15 Oeste 31 Sudoeste 0 -- -- 30
2018-07-28 16:00:00 26.2 17 Sudoeste 31 Sudoeste 0 -- -- 34
2018-07-28 15:00:00 25.8 8 Oeste 26 Sudoeste 0 -- -- 42
2018-07-28 14:00:00 24.1 13 Oeste 24 Sudoeste 0 -- -- 48
2018-07-28 13:00:00 24.2 7 Este 15 Este 0 -- -- 48
2018-07-28 12:00:00 22.3 7 Sudeste 15 Este 0 -- -- 52
2018-07-28 11:00:00 21.1 7 Este 17 Este 0 -- -- 59
2018-07-28 10:00:00 20.7 3 Nordeste 7 Noroeste 0 -- -- 60
2018-07-28 09:00:00 17.7 2 Oeste 5 Noroeste 0 -- -- 70
2018-07-28 08:00:00 11.7 4 Oeste 8 Oeste 0 -- -- 94
2018-07-28 07:00:00 10.7 6 Oeste 12 Sudoeste 0 -- -- 98
2018-07-28 06:00:00 10.8 5 Sur 13 Sur 0 -- -- 96
2018-07-28 05:00:00 11.2 10 Sudoeste 13 Sudoeste 0 -- -- 95
2018-07-28 04:00:00 11.9 6 Sur 13 Sudoeste 0 -- -- 92
2018-07-28 03:00:00 12.9 11 Sudoeste 19 Sudoeste 0 -- -- 87
2018-07-28 02:00:00 14.4 12 Sudoeste 21 Oeste 0 -- -- 80
2018-07-28 01:00:00 16 11 Oeste 29 Oeste 0 -- -- 77
2018-07-28 00:00:00 17.4 13 Oeste 25 Oeste 0 -- -- 74
2018-07-27 23:00:00 18.6 17 Oeste 30 Oeste 0 -- -- 70
2018-07-27 22:00:00 20.2 13 Oeste 29 Oeste 0 -- -- 53
2018-07-27 21:00:00 23.3 19 Oeste 35 Sudoeste 0 -- -- 47
2018-07-27 20:00:00 25.2 19 Oeste 36 Oeste 0 -- -- 40
2018-07-27 19:00:00 25.6 19 Sudoeste 36 Sudoeste 0 -- -- 36
2018-07-27 18:00:00 25.2 23 Sudoeste 37 Oeste 0 -- -- 37
2018-07-27 17:00:00 26.1 23 Sudoeste 40 Sudoeste 0 -- -- 39
2018-07-27 16:00:00 25.8 22 Sudoeste 36 Sudoeste 0 -- -- 39
2018-07-27 15:00:00 24.7 18 Sudoeste 33 Sudoeste 0 -- -- 46
2018-07-27 14:00:00 23.3 15 Sudoeste 30 Sudoeste 0 -- -- 47
2018-07-27 13:00:00 -- -- -- -- -- -- -- -- --
2018-07-27 12:00:00 22.4 13 Sudoeste 22 Sudoeste 0 -- -- 61
2018-07-27 11:00:00 21.9 10 Oeste 19 Oeste 0 -- -- 64
2018-07-27 10:00:00 19.8 6 Oeste 12 Oeste 0 -- -- 71
2018-07-27 09:00:00 16.6 7 Sudoeste 11 Sudoeste 0 -- -- 89
2018-07-27 08:00:00 14.3 8 Sudoeste 11 Sudoeste 0 -- -- 95
2018-07-27 07:00:00 13.7 8 Sudoeste 14 Sudoeste 0 -- -- 97
2018-07-27 06:00:00 14.5 6 Sudoeste 10 Sudoeste 0 -- -- 91
2018-07-27 05:00:00 14.1 5 Sudeste -- -- 0 -- -- 91
2018-07-27 04:00:00 15.1 2 Sudoeste 6 Nordeste 0 -- -- 83
2018-07-27 03:00:00 15.8 5 Oeste 14 Sudoeste 0 -- -- 79
2018-07-27 02:00:00 17.2 10 Oeste 14 Oeste 0 -- -- 73
2018-07-27 01:00:00 17.9 7 Oeste 15 Oeste 0 -- -- 70
2018-07-27 00:00:00 18.9 11 Oeste 15 Oeste 0 -- -- 66
2018-07-26 23:00:00 19.4 8 Noroeste 19 Oeste 0 -- -- 61
2018-07-26 22:00:00 21.7 9 Oeste 22 Oeste 0 -- -- 52
2018-07-26 21:00:00 25.6 12 Oeste 30 Oeste 0 -- -- 37
2018-07-26 20:00:00 26.8 18 Oeste 33 Oeste 0 -- -- 30
2018-07-26 19:00:00 27.6 21 Sudoeste 36 Sudoeste 0 -- -- 29
2018-07-26 18:00:00 28.1 19 Sudoeste 33 Sudoeste 0 -- -- 33
2018-07-26 17:00:00 28 15 Sudoeste 31 Oeste 0 -- -- 31
2018-07-26 16:00:00 26.9 16 Sudoeste 32 Sudoeste 0 -- -- 44
2018-07-26 15:00:00 26.4 14 Sudoeste 32 Sudoeste 0 -- -- 50
2018-07-26 14:00:00 25.2 15 Oeste 24 Oeste 0 -- -- 57
2018-07-26 13:00:00 24.6 13 Sudoeste 22 Sudoeste 0 -- -- 63
2018-07-26 12:00:00 22.5 13 Sudoeste 19 Oeste 0 -- -- 70
2018-07-26 11:00:00 21 11 Sudoeste 20 Sudoeste 0 -- -- 76
2018-07-26 10:00:00 19 12 Sudoeste 19 Sudoeste 0 -- -- 82
2018-07-26 09:00:00 17.7 9 Sudoeste 14 Sudoeste 0 -- -- 88
2018-07-26 08:00:00 16.1 4 Sudoeste 14 Sudoeste 0 -- -- 93
2018-07-26 07:00:00 15.3 5 Sudoeste 10 Sudoeste 0 -- -- 95
2018-07-26 06:00:00 16 6 Sudoeste 11 Sudoeste 0 -- -- 95
2018-07-26 05:00:00 16.7 8 Sudoeste 10 Sudoeste 0 -- -- 93
2018-07-26 04:00:00 17.4 9 Sudoeste 11 Sudoeste 0 -- -- 91
2018-07-26 03:00:00 17.6 10 Sudoeste 12 Sudoeste 0 -- -- 90
2018-07-26 02:00:00 18.5 10 Sudoeste 13 Sudoeste 0 -- -- 86
2018-07-26 01:00:00 19.3 9 Sudoeste 15 Sudoeste 0 -- -- 81
2018-07-26 00:00:00 20.1 12 Sudoeste 14 Sudoeste 0 -- -- 75
2018-07-25 23:00:00 22 7 Oeste 15 Oeste 0 -- -- 57
2018-07-25 22:00:00 24.1 7 Oeste 17 Oeste 0 -- -- 50
2018-07-25 21:00:00 27.9 11 Oeste 21 Sudoeste 0 -- -- 38
2018-07-25 20:00:00 29.4 15 Oeste 25 Sudoeste 0 -- -- 33
2018-07-25 19:00:00 30.7 13 Sur 28 Sudeste 0 -- -- 31
2018-07-25 18:00:00 31.3 6 Sudoeste 26 Sudoeste 0 -- -- 29
2018-07-25 17:00:00 30.3 10 Oeste 23 Sur 0 -- -- 35
2018-07-25 16:00:00 29.4 8 Sudeste 24 Sudeste 0 -- -- 37
2018-07-25 15:00:00 28 9 Este 21 Este 0 -- -- 44
2018-07-25 14:00:00 27.9 7 Sur 15 Sur 0 -- -- 44
2018-07-25 13:00:00 26.5 9 Este 17 Nordeste 0 -- -- 53
2018-07-25 12:00:00 24.5 10 Nordeste 22 Nordeste 0 -- -- 61
2018-07-25 11:00:00 22.3 14 Nordeste 25 Nordeste 0 -- -- 69
2018-07-25 10:00:00 20.3 19 Nordeste 32 Nordeste 0 -- -- 76
2018-07-25 09:00:00 17.8 22 Nordeste 30 Nordeste 0 -- -- 87
2018-07-25 08:00:00 15.8 16 Nordeste 21 Nordeste 0 -- -- 95
2018-07-25 07:00:00 14.7 17 Nordeste 21 Nordeste 0 -- -- 98
2018-07-25 06:00:00 14.6 16 Nordeste 19 Nordeste 0 -- -- 98
2018-07-25 05:00:00 14.8 15 Nordeste 17 Este 0 -- -- 96
2018-07-25 04:00:00 15.4 14 Este 23 Nordeste 0 -- -- 92
2018-07-25 03:00:00 17.1 13 Nordeste 29 Nordeste 0 -- -- 85
2018-07-25 02:00:00 17.1 3 Sudoeste 5 Oeste 0 -- -- 85
2018-07-25 01:00:00 18.1 6 Oeste 9 Oeste 0 -- -- 80
2018-07-25 00:00:00 18.4 6 Oeste 12 Noroeste 0 -- -- 77
2018-07-24 23:00:00 18.9 8 Noroeste 13 Noroeste 0 -- -- 69
2018-07-24 22:00:00 22.1 9 Oeste 15 Oeste 0 -- -- 45
2018-07-24 21:00:00 26 10 Oeste 22 Oeste 0 -- -- 38
2018-07-24 20:00:00 27.1 17 Sudoeste 24 Sudoeste 0 -- -- 39
2018-07-24 19:00:00 28.3 12 Sudoeste 24 Sudoeste 0 -- -- 36
2018-07-24 18:00:00 28.4 12 Oeste 24 Sudoeste 0 -- -- 30
2018-07-24 17:00:00 28.7 13 Sur 24 Sudoeste 0 -- -- 31
2018-07-24 16:00:00 27.4 10 Sudoeste 22 Sudoeste 0 -- -- 33
2018-07-24 15:00:00 26.3 13 Sur 25 Sur 0 -- -- 40
2018-07-24 14:00:00 25.3 9 Sudoeste 21 Sudoeste 0 -- -- 45
2018-07-24 13:00:00 24.1 9 Oeste 18 Sudoeste 0 -- -- 49
2018-07-24 12:00:00 22.8 10 Sudoeste 19 Sudoeste 0 -- -- 55
2018-07-24 11:00:00 21.2 9 Oeste 16 Oeste 0 -- -- 67
2018-07-24 10:00:00 19.6 6 Oeste 10 Sudoeste 0 -- -- 76
2018-07-24 09:00:00 19 3 Noroeste 9 Oeste 0 -- -- 78
2018-07-24 08:00:00 15.5 3 Oeste 7 Sudoeste 0 -- -- 93
2018-07-24 07:00:00 13.5 3 Sur 10 Sudoeste 0 -- -- 98
2018-07-24 06:00:00 14.2 9 Sudoeste 12 Sudoeste 0 -- -- 93
2018-07-24 05:00:00 15.2 8 Sudoeste 17 Sudoeste 0 -- -- 92
2018-07-24 04:00:00 16.8 13 Sudoeste 19 Sudoeste 0 -- -- 85
2018-07-24 03:00:00 17.2 11 Sudoeste 17 Sudoeste 0 -- -- 82
2018-07-24 02:00:00 19.3 11 Oeste 18 Sudoeste 0 -- -- 73
2018-07-24 01:00:00 19.6 13 Sudoeste 17 Oeste 0 -- -- 69
2018-07-24 00:00:00 20.5 12 Oeste 17 Oeste 0 -- -- 61
2018-07-23 23:00:00 22 8 Oeste 15 Oeste 0 -- -- 51
2018-07-23 22:00:00 24.4 8 Sudoeste 18 Oeste 0 -- -- 40
2018-07-23 21:00:00 27.1 12 Oeste 26 Sudoeste 0 -- -- 35
2018-07-23 20:00:00 28.9 12 Sudoeste 30 Sudoeste 0 -- -- 31
2018-07-23 19:00:00 30.5 17 Sudoeste 30 Sudoeste 0 -- -- 28
2018-07-23 18:00:00 30.3 14 Sudoeste 32 Oeste 0 -- -- 31
2018-07-23 17:00:00 30.9 10 Sudoeste 31 Oeste 0 -- -- 32
2018-07-23 16:00:00 29.5 17 Sudoeste 34 Sur 0 -- -- 31
2018-07-23 15:00:00 28.7 20 Sudoeste 35 Sudoeste 0 -- -- 33
2018-07-23 14:00:00 27.7 15 Sur 28 Oeste 0 -- -- 38
2018-07-23 13:00:00 27 6 Sur 18 Sudeste 0 -- -- 43
2018-07-23 12:00:00 24.6 11 Este 22 Este 0 -- -- 52
2018-07-23 11:00:00 22.2 15 Este 26 Nordeste 0 -- -- 61
2018-07-23 10:00:00 20 23 Nordeste 31 Nordeste 0 -- -- 69
2018-07-23 09:00:00 17.6 18 Nordeste 24 Nordeste 0 -- -- 77
2018-07-23 08:00:00 14.9 17 Nordeste 21 Nordeste 0 -- -- 85
2018-07-23 07:00:00 14.1 18 Nordeste 24 Nordeste 0 -- -- 89
2018-07-23 06:00:00 14.2 21 Nordeste 29 Nordeste 0 -- -- 89
2018-07-23 05:00:00 15 20 Nordeste 27 Nordeste 0 -- -- 86
2018-07-23 04:00:00 15.2 18 Nordeste 26 Nordeste 0 -- -- 86
2018-07-23 03:00:00 16.2 19 Nordeste 30 Nordeste 0 -- -- 81
2018-07-23 02:00:00 17.3 20 Nordeste 27 Nordeste 0 -- -- 75
2018-07-23 01:00:00 17.7 17 Nordeste 23 Nordeste 0 -- -- 66
2018-07-23 00:00:00 17.8 13 Nordeste 16 Nordeste 0 -- -- 64
2018-07-22 23:00:00 19 13 Nordeste 14 Nordeste 0 -- -- 60
2018-07-22 22:00:00 21.3 11 Nordeste 12 Nordeste 0 -- -- 52
2018-07-22 21:00:00 26.1 7 Nordeste 9 Nordeste 0 -- -- 40
2018-07-22 20:00:00 29.5 3 Norte 13 Este 0 -- -- 30
2018-07-22 19:00:00 29.6 5 Norte 21 Nordeste 0 -- -- 30
2018-07-22 18:00:00 28.4 6 Norte 21 Nordeste 0 -- -- 34
2018-07-22 17:00:00 27.7 7 Nordeste 21 Este 0 -- -- 37
2018-07-22 16:00:00 25.7 6 Sudeste 24 Este 0 -- -- 39
2018-07-22 15:00:00 24.9 11 Nordeste 26 Nordeste 0 -- -- 47
2018-07-22 14:00:00 24.6 12 Nordeste 27 Este 0 -- -- 47
2018-07-22 13:00:00 22.5 17 Nordeste 33 Nordeste 0 -- -- 53
2018-07-22 12:00:00 20.8 22 Nordeste 33 Este 0 -- -- 61
2018-07-22 11:00:00 19.2 23 Nordeste 31 Nordeste 0 -- -- 67
2018-07-22 10:00:00 17.2 23 Nordeste 36 Este 0 -- -- 77
2018-07-22 09:00:00 15.2 21 Nordeste 28 Nordeste 0 -- -- 86
2018-07-22 08:00:00 12.7 15 Nordeste 20 Nordeste 0 -- -- 93
2018-07-22 07:00:00 11.7 14 Nordeste 18 Nordeste 0 -- -- 96
2018-07-22 06:00:00 11.7 12 Nordeste 17 Nordeste 0 -- -- 96
2018-07-22 05:00:00 12.6 13 Nordeste 17 Nordeste 0 -- -- 92
2018-07-22 04:00:00 13.3 14 Nordeste 17 Nordeste 0 -- -- 88
2018-07-22 03:00:00 13.7 14 Nordeste 19 Este 0 -- -- 85
2018-07-22 02:00:00 13.8 12 Este 20 Este 0 -- -- 83
2018-07-22 01:00:00 14.5 14 Este 18 Este 0 -- -- 80
2018-07-22 00:00:00 14.9 14 Este 18 Nordeste 0 -- -- 79
2018-07-21 23:00:00 16.2 15 Nordeste 19 Nordeste 0 -- -- 72
2018-07-21 22:00:00 17.7 12 Nordeste 18 Nordeste 0 -- -- 68
2018-07-21 21:00:00 20 8 Noroeste 17 Noroeste 0 -- -- 61
2018-07-21 20:00:00 21.6 8 Noroeste 15 Oeste 0 -- -- 55
2018-07-21 19:00:00 22.3 5 Sur 11 Sudoeste 0 -- -- 54
2018-07-21 18:00:00 23.5 6 Sudeste 18 Noroeste 0 -- -- 49
2018-07-21 17:00:00 24 3 Sudoeste 17 Oeste 0 -- -- 47
2018-07-21 16:00:00 23.2 8 Sudoeste 15 Oeste 0 -- -- 51
2018-07-21 15:00:00 22.3 9 Noroeste 17 Noroeste 0 -- -- 52
2018-07-21 14:00:00 22.8 5 Sur 13 Sur 0 -- -- 54
2018-07-21 13:00:00 21.2 6 Oeste 11 Oeste 0 -- -- 59
2018-07-21 12:00:00 20 5 Sur 15 Sudeste 0 -- -- 61
2018-07-21 11:00:00 17.4 11 Este 22 Este 0 -- -- 72
2018-07-21 10:00:00 16 15 Este 24 Este 0 -- -- 77
2018-07-21 09:00:00 14.1 15 Nordeste 23 Nordeste 0 -- -- 85
2018-07-21 08:00:00 12.1 15 Este 23 Este 0 -- -- 91
2018-07-21 07:00:00 11.2 17 Este 21 Este 0 -- -- 96
2018-07-21 06:00:00 11.3 14 Nordeste 16 Nordeste 0 -- -- 95
2018-07-21 05:00:00 11.6 11 Nordeste 14 Nordeste 0 -- -- 96
2018-07-21 04:00:00 12.3 13 Nordeste 23 Nordeste 0 -- -- 92
2018-07-21 03:00:00 13.5 19 Nordeste 26 Nordeste 0 -- -- 88
2018-07-21 02:00:00 14 13 Nordeste 23 Nordeste 0 -- -- 89
2018-07-21 01:00:00 15.3 15 Nordeste 20 Nordeste 0 -- -- 84
2018-07-21 00:00:00 15.6 13 Nordeste 18 Nordeste 0 -- -- 87
2018-07-20 23:00:00 15.3 13 Nordeste 15 Nordeste 0 -- -- 89
2018-07-20 22:00:00 16.1 13 Nordeste 21 Nordeste 0 -- -- 85
2018-07-20 21:00:00 18.8 15 Nordeste 33 Nordeste 0 -- -- 73
2018-07-20 20:00:00 19.1 27 Nordeste 36 Nordeste 0 -- -- 72
2018-07-20 19:00:00 25.2 9 Norte 20 Noroeste 0 -- -- 48
2018-07-20 18:00:00 23.6 15 Noroeste 26 Noroeste 0 -- -- 55
2018-07-20 17:00:00 22.4 12 Norte 20 Nordeste 0 -- -- 63
2018-07-20 16:00:00 16.5 12 Nordeste 44 Norte 1.2 -- -- 90
2018-07-20 15:00:00 14 35 Noroeste 53 Noroeste 8.8 -- -- 94
2018-07-20 14:00:00 24.1 9 Nordeste 18 Este 0 -- -- 52
2018-07-20 13:00:00 21 9 Este 19 Este 0 -- -- 61
2018-07-20 12:00:00 22 14 Este 27 Este 0 -- -- 60
2018-07-20 11:00:00 18.9 17 Nordeste 26 Este 0 -- -- 71
2018-07-20 10:00:00 18.8 13 Nordeste 22 Nordeste 0 -- -- 74
2018-07-20 09:00:00 18 8 Nordeste 10 Nordeste 0 -- -- 79
2018-07-20 08:00:00 13.9 10 Nordeste 14 Nordeste 0 -- -- 95
2018-07-20 07:00:00 12.8 3 Nordeste 7 Nordeste 0 -- -- 98
2018-07-20 06:00:00 12.5 4 Nordeste 8 Noroeste 0 -- -- 97
2018-07-20 05:00:00 13.4 5 Nordeste 13 Este 0 -- -- 93
2018-07-20 04:00:00 14.2 9 Este 14 Este 0 -- -- 92
2018-07-20 03:00:00 14.8 9 Este 13 Este 0 -- -- 87
2018-07-20 02:00:00 16.5 6 Este 9 Nordeste 0 -- -- 82
2018-07-20 01:00:00 16.7 3 Nordeste 8 Nordeste 0 -- -- 81
2018-07-20 00:00:00 16.7 4 Norte 12 Noroeste 0 -- -- 80